createdAt,value
2017-12-02T00:01:00.750Z,84.30
2017-12-02T00:03:34.294Z,84.80
2017-12-02T00:06:08.354Z,84.80
2017-12-02T00:08:40.946Z,84.40
2017-12-02T00:11:13.491Z,85.10
2017-12-02T00:13:46.991Z,86.30
2017-12-02T00:16:20.637Z,85.50
2017-12-02T00:18:53.555Z,84.90
2017-12-02T00:21:27.016Z,85.50
2017-12-02T00:23:59.650Z,85.10
2017-12-02T00:26:32.800Z,84.70
2017-12-02T00:29:05.598Z,84.60
2017-12-02T00:31:38.839Z,84.70
2017-12-02T00:34:11.319Z,84.50
2017-12-02T00:36:43.879Z,84.90
2017-12-02T00:39:17.167Z,84.90
2017-12-02T00:41:49.940Z,84.70
2017-12-02T00:44:23.192Z,84.40
2017-12-02T00:46:55.960Z,84.20
2017-12-02T00:49:29.379Z,84.20
2017-12-02T00:52:02.164Z,84.80
2017-12-02T00:54:35.328Z,85.80
2017-12-02T00:57:08.035Z,85.40
2017-12-02T00:59:40.348Z,85.60
2017-12-02T01:02:13.563Z,85.40
2017-12-02T01:04:47.163Z,86.50
2017-12-02T01:07:20.651Z,86.10
2017-12-02T01:09:53.468Z,85.00
2017-12-02T01:12:26.836Z,83.30
2017-12-02T01:14:59.460Z,81.80
2017-12-02T01:17:32.039Z,83.10
2017-12-02T01:20:04.617Z,82.90
2017-12-02T01:22:37.864Z,83.70
2017-12-02T01:25:10.770Z,84.80
2017-12-02T01:27:44.488Z,85.90
2017-12-02T01:30:18.267Z,85.40
2017-12-02T01:32:51.498Z,84.60
2017-12-02T01:35:24.283Z,83.00
2017-12-02T01:37:57.067Z,83.00
2017-12-02T01:40:29.447Z,82.40
2017-12-02T01:43:02.377Z,82.20
2017-12-02T01:45:36.299Z,85.10
2017-12-02T01:48:09.170Z,85.10
2017-12-02T01:50:42.483Z,84.60
2017-12-02T01:53:15.597Z,85.30
2017-12-02T01:55:48.194Z,84.70
2017-12-02T01:58:20.872Z,83.70
2017-12-02T02:00:53.964Z,84.10
2017-12-02T02:03:26.948Z,83.60
2017-12-02T02:06:00.337Z,84.00
2017-12-02T02:08:32.983Z,83.30
2017-12-02T02:11:06.324Z,82.50
2017-12-02T02:13:40.477Z,85.00
2017-12-02T02:16:13.807Z,86.30
2017-12-02T02:18:47.501Z,85.70
2017-12-02T02:21:21.390Z,86.60
2017-12-02T02:23:55.008Z,85.30
2017-12-02T02:26:28.260Z,84.80
2017-12-02T02:29:01.569Z,83.80
2017-12-02T02:31:35.106Z,85.20
2017-12-02T02:34:07.825Z,84.70
2017-12-02T02:36:41.279Z,84.50
2017-12-02T02:39:15.075Z,85.40
2017-12-02T02:41:48.948Z,85.20
2017-12-02T02:44:21.808Z,84.90
2017-12-02T02:46:54.719Z,84.30
2017-12-02T02:49:27.182Z,84.40
2017-12-02T02:51:59.811Z,84.70
2017-12-02T02:54:33.157Z,84.20
2017-12-02T02:57:05.622Z,83.50
2017-12-02T02:59:38.728Z,84.50
2017-12-02T03:02:11.705Z,84.50
2017-12-02T03:04:44.222Z,84.20
2017-12-02T03:07:17.493Z,83.70
2017-12-02T03:09:50.042Z,84.00
2017-12-02T03:12:22.703Z,84.30
2017-12-02T03:14:55.099Z,84.10
2017-12-02T03:17:28.413Z,81.50
2017-12-02T03:20:01.101Z,81.10
2017-12-02T03:22:33.736Z,81.30
2017-12-02T03:25:07.035Z,81.60
2017-12-02T03:27:40.099Z,81.40
2017-12-02T03:30:13.059Z,82.10
2017-12-02T03:32:45.635Z,81.10
2017-12-02T03:35:18.887Z,81.30
2017-12-02T03:37:51.768Z,82.10
2017-12-02T03:40:25.931Z,83.40
2017-12-02T03:42:59.594Z,83.10
2017-12-02T03:45:32.184Z,83.00
2017-12-02T03:48:05.308Z,83.50
2017-12-02T03:50:37.957Z,82.80
2017-12-02T03:53:11.269Z,83.60
2017-12-02T03:55:44.474Z,83.20
2017-12-02T03:58:17.521Z,82.80
2017-12-02T04:00:50.176Z,82.20
2017-12-02T04:03:24.521Z,81.70
2017-12-02T04:05:57.690Z,82.30
2017-12-02T04:08:30.284Z,81.90
2017-12-02T04:11:04.038Z,83.50
2017-12-02T04:13:37.003Z,83.10
2017-12-02T04:16:09.767Z,83.60
2017-12-02T04:18:42.548Z,83.30
2017-12-02T04:21:15.116Z,83.00
2017-12-02T04:23:47.745Z,83.60
2017-12-02T04:26:20.294Z,83.90
2017-12-02T04:28:52.836Z,83.70
2017-12-02T04:31:26.075Z,84.00
2017-12-02T04:33:59.503Z,83.80
2017-12-02T04:36:32.166Z,84.00
2017-12-02T04:39:05.975Z,83.90
2017-12-02T04:41:39.150Z,83.80
2017-12-02T04:44:11.810Z,83.40
2017-12-02T04:46:45.399Z,83.70
2017-12-02T04:49:18.722Z,83.30
2017-12-02T04:51:52.054Z,82.90
2017-12-02T04:54:24.558Z,82.80
2017-12-02T04:56:57.834Z,82.30
2017-12-02T04:59:30.809Z,81.70
2017-12-02T05:02:04.206Z,80.60
2017-12-02T05:04:37.628Z,82.00
2017-12-02T05:07:10.454Z,81.30
2017-12-02T05:09:43.229Z,82.30
2017-12-02T05:12:15.991Z,80.60
2017-12-02T05:14:48.386Z,80.10
2017-12-02T05:17:20.961Z,80.30
2017-12-02T05:19:53.380Z,80.70
2017-12-02T05:22:26.634Z,82.00
2017-12-02T05:25:00.271Z,82.90
2017-12-02T05:27:33.542Z,82.60
2017-12-02T05:30:06.913Z,82.30
2017-12-02T05:32:40.235Z,83.00
2017-12-02T05:35:13.886Z,83.10
2017-12-02T05:37:47.490Z,83.30
2017-12-02T05:40:20.102Z,82.80
2017-12-02T05:42:52.522Z,82.80
2017-12-02T05:45:25.930Z,83.90
2017-12-02T05:47:58.425Z,84.90
2017-12-02T05:50:30.822Z,85.40
2017-12-02T05:53:04.290Z,85.30
2017-12-02T05:55:37.551Z,86.40
2017-12-02T05:58:10.219Z,85.90
2017-12-02T06:00:43.387Z,86.60
2017-12-02T06:03:17.290Z,86.90
2017-12-02T06:05:49.934Z,86.50
2017-12-02T06:08:22.502Z,86.70
2017-12-02T06:10:54.998Z,86.80
2017-12-02T06:13:27.397Z,86.50
2017-12-02T06:16:00.395Z,86.30
2017-12-02T06:18:33.792Z,86.60
2017-12-02T06:21:07.285Z,86.90
2017-12-02T06:23:40.552Z,86.90
2017-12-02T06:26:13.490Z,86.60
2017-12-02T06:28:46.154Z,87.10
2017-12-02T06:31:18.633Z,86.50
2017-12-02T06:33:52.855Z,87.50
2017-12-02T06:36:25.429Z,87.30
2017-12-02T06:38:59.582Z,87.80
2017-12-02T06:41:32.300Z,87.50
2017-12-02T06:44:05.799Z,88.50
2017-12-02T06:46:38.451Z,87.80
2017-12-02T06:49:10.929Z,88.80
2017-12-02T06:51:45.090Z,88.70
2017-12-02T06:54:17.725Z,88.50
2017-12-02T06:56:51.054Z,88.90
2017-12-02T06:59:24.196Z,89.30
2017-12-02T07:01:56.891Z,89.00
2017-12-02T07:04:29.359Z,88.90
2017-12-02T07:07:03.439Z,90.00
2017-12-02T07:09:36.202Z,89.50
2017-12-02T07:12:10.289Z,90.30
2017-12-02T07:14:43.911Z,90.50
2017-12-02T07:17:16.626Z,90.20
2017-12-02T07:19:49.551Z,90.30
2017-12-02T07:22:23.012Z,90.50
2017-12-02T07:24:56.284Z,90.10
2017-12-02T07:27:29.991Z,90.20
2017-12-02T07:30:03.692Z,90.20
2017-12-02T07:32:36.414Z,90.00
2017-12-02T07:35:09.099Z,89.70
2017-12-02T07:37:43.029Z,90.00
2017-12-02T07:40:15.911Z,90.20
2017-12-02T07:42:55.911Z,88.70
2017-12-02T07:45:28.586Z,88.70
2017-12-02T07:48:01.802Z,89.40
2017-12-02T07:50:34.910Z,90.00
2017-12-02T07:53:07.652Z,90.30
2017-12-02T07:55:41.779Z,90.00
2017-12-02T07:58:14.658Z,89.50
2017-12-02T08:00:48.023Z,89.20
2017-12-02T08:03:21.396Z,89.30
2017-12-02T08:05:54.331Z,89.70
2017-12-02T08:08:27.058Z,89.40
2017-12-02T08:10:59.863Z,88.40
2017-12-02T08:13:33.149Z,89.20
2017-12-02T08:16:06.871Z,88.60
2017-12-02T08:18:40.514Z,88.10
2017-12-02T08:21:13.155Z,87.60
2017-12-02T08:23:46.534Z,88.20
2017-12-02T08:26:20.547Z,88.30
2017-12-02T08:28:53.810Z,87.90
2017-12-02T08:31:27.710Z,87.60
2017-12-02T08:34:00.318Z,87.70
2017-12-02T08:36:33.764Z,88.30
2017-12-02T08:39:07.103Z,87.80
2017-12-02T08:41:40.475Z,88.00
2017-12-02T08:44:12.965Z,87.60
2017-12-02T08:46:45.493Z,87.90
2017-12-02T08:49:18.194Z,88.00
2017-12-02T08:51:51.811Z,87.60
2017-12-02T08:54:24.625Z,87.50
2017-12-02T08:56:57.142Z,87.80
2017-12-02T08:59:29.506Z,87.00
2017-12-02T09:02:03.280Z,86.50
2017-12-02T09:04:36.583Z,85.80
2017-12-02T09:07:10.730Z,85.70
2017-12-02T09:09:43.210Z,85.30
2017-12-02T09:12:16.582Z,84.80
2017-12-02T09:14:49.159Z,85.20
2017-12-02T09:17:21.570Z,84.40
2017-12-02T09:19:54.083Z,84.40
2017-12-02T09:22:26.618Z,84.60
2017-12-02T09:24:59.821Z,84.20
2017-12-02T09:27:32.832Z,83.70
2017-12-02T09:30:06.911Z,83.50
2017-12-02T09:32:40.795Z,83.50
2017-12-02T09:35:13.626Z,83.60
2017-12-02T09:37:46.231Z,83.30
2017-12-02T09:40:19.434Z,83.20
2017-12-02T09:42:53.134Z,83.80
2017-12-02T09:45:26.207Z,83.20
2017-12-02T09:47:58.837Z,83.40
2017-12-02T09:50:31.710Z,82.70
2017-12-02T09:53:04.894Z,82.90
2017-12-02T09:55:37.647Z,82.20
2017-12-02T09:58:10.174Z,82.30
2017-12-02T10:00:42.966Z,81.80
2017-12-02T10:03:16.367Z,83.30
2017-12-02T10:05:49.915Z,83.40
2017-12-02T10:08:22.849Z,82.50
2017-12-02T10:10:55.322Z,82.30
2017-12-02T10:13:27.720Z,82.50
2017-12-02T10:16:00.791Z,81.70
2017-12-02T10:18:34.582Z,81.70
2017-12-02T10:21:07.953Z,81.90
2017-12-02T10:23:40.897Z,81.20
2017-12-02T10:26:14.903Z,82.60
2017-12-02T10:28:48.650Z,82.00
2017-12-02T10:31:21.306Z,82.00
2017-12-02T10:33:54.167Z,81.60
2017-12-02T10:36:26.550Z,81.20
2017-12-02T10:38:59.806Z,81.50
2017-12-02T10:41:32.222Z,80.60
2017-12-02T10:44:04.823Z,80.40
2017-12-02T10:46:38.208Z,79.80
2017-12-02T10:49:12.211Z,80.30
2017-12-02T10:51:44.893Z,79.60
2017-12-02T10:54:18.035Z,79.70
2017-12-02T10:56:50.761Z,79.40
2017-12-02T10:59:23.250Z,79.70
2017-12-02T11:01:57.214Z,81.00
2017-12-02T11:04:30.743Z,81.40
2017-12-02T11:07:03.470Z,80.90
2017-12-02T11:09:37.603Z,81.90
2017-12-02T11:12:11.167Z,81.50
2017-12-02T11:14:44.075Z,81.60
2017-12-02T11:17:16.476Z,81.30
2017-12-02T11:19:48.891Z,81.70
2017-12-02T11:22:21.218Z,81.30
2017-12-02T11:24:53.599Z,80.90
2017-12-02T11:27:26.151Z,80.50
2017-12-02T11:30:00.261Z,80.30
2017-12-02T11:32:32.913Z,79.70
2017-12-02T11:35:06.179Z,78.70
2017-12-02T11:37:39.430Z,79.30
2017-12-02T11:40:12.679Z,79.80
2017-12-02T11:42:46.390Z,79.40
2017-12-02T11:45:18.989Z,79.30
2017-12-02T11:47:51.367Z,78.10
2017-12-02T11:50:24.207Z,78.00
2017-12-02T11:52:56.961Z,78.80
2017-12-02T11:55:30.626Z,78.80
2017-12-02T11:58:03.462Z,78.50
2017-12-02T12:00:37.092Z,77.30
2017-12-02T12:03:09.669Z,77.40
2017-12-02T12:05:43.011Z,77.10
2017-12-02T12:08:16.679Z,78.70
2017-12-02T12:10:49.280Z,78.10
2017-12-02T12:13:22.754Z,78.20
2017-12-02T12:15:55.834Z,77.50
2017-12-02T12:18:28.584Z,77.10
2017-12-02T12:21:00.961Z,75.80
2017-12-02T12:23:34.321Z,74.90
2017-12-02T12:26:08.021Z,74.80
2017-12-02T12:28:41.700Z,74.80
2017-12-02T12:31:14.564Z,74.00
2017-12-02T12:33:47.909Z,74.40
2017-12-02T12:36:21.022Z,75.40
2017-12-02T12:38:54.493Z,76.30
2017-12-02T12:41:28.128Z,76.90
2017-12-02T12:44:00.799Z,76.10
2017-12-02T12:46:34.050Z,76.70
2017-12-02T12:49:07.422Z,76.50
2017-12-02T12:51:40.316Z,76.60
2017-12-02T12:54:13.594Z,77.20
2017-12-02T12:56:46.522Z,76.30
2017-12-02T12:59:19.425Z,77.20
2017-12-02T13:01:53.554Z,78.00
2017-12-02T13:04:26.505Z,77.70
2017-12-02T13:07:00.215Z,78.40
2017-12-02T13:09:33.552Z,78.40
2017-12-02T13:12:06.636Z,77.70
2017-12-02T13:14:39.376Z,78.00
2017-12-02T13:17:11.827Z,78.30
2017-12-02T13:19:44.403Z,78.50
2017-12-02T13:22:17.164Z,78.80
2017-12-02T13:24:49.625Z,79.40
2017-12-02T13:27:22.246Z,79.10
2017-12-02T13:29:55.364Z,79.40
2017-12-02T13:32:29.070Z,79.00
2017-12-02T13:35:02.213Z,78.60
2017-12-02T13:37:35.731Z,78.50
2017-12-02T13:40:08.542Z,78.20
2017-12-02T13:42:40.837Z,77.20
2017-12-02T13:45:13.224Z,77.00
2017-12-02T13:47:45.735Z,76.40
2017-12-02T13:50:18.279Z,76.60
2017-12-02T13:52:50.825Z,76.70
2017-12-02T13:55:23.150Z,76.30
2017-12-02T13:57:56.370Z,76.70
2017-12-02T14:00:29.598Z,78.00
2017-12-02T14:03:02.854Z,76.60
2017-12-02T14:05:36.141Z,76.50
2017-12-02T14:08:08.584Z,76.90
2017-12-02T14:10:42.639Z,76.90
2017-12-02T14:13:15.331Z,76.10
2017-12-02T14:15:47.670Z,76.70
2017-12-02T14:18:20.808Z,77.20
2017-12-02T14:20:53.286Z,76.60
2017-12-02T14:23:27.362Z,76.80
2017-12-02T14:26:00.620Z,77.10
2017-12-02T14:28:33.233Z,76.40
2017-12-02T14:31:06.449Z,76.50
2017-12-02T14:33:38.911Z,77.40
2017-12-02T14:36:12.313Z,76.90
2017-12-02T14:38:46.205Z,78.00
2017-12-02T14:41:19.481Z,77.80
2017-12-02T14:43:52.033Z,78.10
2017-12-02T14:46:26.014Z,78.90
2017-12-02T14:48:59.390Z,79.40
2017-12-02T14:51:32.074Z,78.40
2017-12-02T14:54:04.390Z,78.70
2017-12-02T14:56:38.479Z,80.00
2017-12-02T14:59:11.062Z,79.60
2017-12-02T15:01:43.497Z,80.60
2017-12-02T15:04:16.632Z,80.50
2017-12-02T15:06:50.049Z,80.10
2017-12-02T15:09:23.239Z,81.80
2017-12-02T15:11:55.829Z,80.90
2017-12-02T15:14:28.155Z,81.50
2017-12-02T15:17:01.481Z,82.10
2017-12-02T15:19:34.832Z,81.60
2017-12-02T15:22:08.843Z,82.60
2017-12-02T15:24:41.583Z,82.00
2017-12-02T15:27:14.859Z,82.60
2017-12-02T15:29:48.202Z,82.60
2017-12-02T15:32:21.542Z,82.70
2017-12-02T15:34:54.917Z,83.00
2017-12-02T15:37:28.099Z,83.40
2017-12-02T15:40:01.411Z,84.00
2017-12-02T15:42:34.666Z,84.30
2017-12-02T15:45:08.647Z,84.90
2017-12-02T15:47:41.031Z,84.10
2017-12-02T15:50:14.303Z,85.00
2017-12-02T15:52:47.654Z,84.80
2017-12-02T15:55:22.842Z,85.10
2017-12-02T15:57:55.271Z,85.30
2017-12-02T16:00:28.589Z,85.20
2017-12-02T16:03:02.682Z,85.80
2017-12-02T16:05:35.205Z,85.10
2017-12-02T16:08:09.240Z,85.90
2017-12-02T16:10:41.838Z,85.40
2017-12-02T16:13:15.674Z,86.00
2017-12-02T16:15:48.321Z,85.80
2017-12-02T16:18:20.662Z,85.40
2017-12-02T16:20:53.950Z,85.70
2017-12-02T16:23:26.306Z,85.40
2017-12-02T16:25:59.662Z,85.80
2017-12-02T16:28:32.870Z,85.50
2017-12-02T16:31:06.110Z,86.40
2017-12-02T16:33:38.674Z,86.30
2017-12-02T16:36:11.922Z,86.00
2017-12-02T16:38:44.285Z,86.60
2017-12-02T16:41:17.563Z,86.40
2017-12-02T16:43:50.883Z,86.60
2017-12-02T16:46:25.002Z,87.30
2017-12-02T16:48:57.671Z,86.90
2017-12-02T16:51:30.888Z,86.70
2017-12-02T16:54:04.226Z,87.30
2017-12-02T16:56:36.589Z,86.80
2017-12-02T16:59:09.712Z,86.80
2017-12-02T17:01:42.306Z,86.80
2017-12-02T17:04:16.420Z,86.90
2017-12-02T17:06:48.974Z,86.20
2017-12-02T17:09:22.301Z,86.30
2017-12-02T17:11:54.742Z,85.90
2017-12-02T17:14:27.802Z,85.60
2017-12-02T17:17:00.374Z,86.10
2017-12-02T17:19:33.543Z,86.50
2017-12-02T17:22:06.054Z,86.20
2017-12-02T17:24:40.094Z,85.70
2017-12-02T17:27:12.762Z,85.50
2017-12-02T17:29:45.886Z,85.80
2017-12-02T17:32:18.434Z,85.50
2017-12-02T17:34:51.916Z,86.20
2017-12-02T17:37:25.802Z,86.10
2017-12-02T17:39:58.462Z,86.10
2017-12-02T17:42:30.832Z,85.70
2017-12-02T17:45:04.147Z,86.50
2017-12-02T17:47:37.438Z,86.80
2017-12-02T17:50:11.420Z,86.80
2017-12-02T17:52:44.015Z,86.70
2017-12-02T17:55:17.173Z,86.70
2017-12-02T17:57:50.568Z,87.10
2017-12-02T18:00:23.723Z,87.50
2017-12-02T18:02:57.031Z,87.50
2017-12-02T18:05:29.787Z,87.00
2017-12-02T18:08:02.267Z,86.80
2017-12-02T18:10:36.434Z,87.10
2017-12-02T18:13:09.144Z,87.50
2017-12-02T18:15:42.379Z,87.10
2017-12-02T18:18:15.579Z,87.10
2017-12-02T18:20:48.830Z,87.00
2017-12-02T18:23:22.071Z,86.90
2017-12-02T18:25:55.190Z,87.20
2017-12-02T18:28:28.482Z,86.90
2017-12-02T18:31:01.193Z,86.60
2017-12-02T18:33:35.138Z,87.40
2017-12-02T18:36:07.674Z,85.80
2017-12-02T18:38:40.146Z,85.50
2017-12-02T18:41:13.305Z,85.90
2017-12-02T18:43:46.103Z,85.60
2017-12-02T18:46:20.106Z,85.80
2017-12-02T18:48:53.399Z,85.80
2017-12-02T18:51:26.739Z,85.70
2017-12-02T18:54:00.318Z,85.60
2017-12-02T18:56:32.785Z,85.20
2017-12-02T18:59:06.791Z,85.80
2017-12-02T19:01:39.284Z,85.40
2017-12-02T19:04:13.374Z,86.30
2017-12-02T19:06:46.846Z,86.10
2017-12-02T19:09:19.295Z,85.70
2017-12-02T19:11:53.276Z,86.30
2017-12-02T19:14:25.950Z,85.40
2017-12-02T19:16:59.951Z,86.30
2017-12-02T19:19:33.219Z,85.90
2017-12-02T19:22:06.821Z,85.90
2017-12-02T19:24:40.142Z,85.80
2017-12-02T19:27:13.233Z,85.40
2017-12-02T19:29:45.919Z,86.10
2017-12-02T19:32:19.885Z,86.50
2017-12-02T19:34:53.317Z,86.80
2017-12-02T19:37:26.546Z,86.70
2017-12-02T19:39:59.051Z,86.30
2017-12-02T19:42:32.291Z,86.60
2017-12-02T19:45:05.794Z,86.80
2017-12-02T19:47:39.155Z,86.70
2017-12-02T19:50:11.790Z,86.50
2017-12-02T19:52:44.087Z,86.20
2017-12-02T19:55:17.263Z,86.70
2017-12-02T19:57:49.701Z,86.40
2017-12-02T20:00:23.897Z,85.50
2017-12-02T20:02:56.435Z,85.80
2017-12-02T20:05:29.630Z,85.90
2017-12-02T20:08:03.025Z,86.40
2017-12-02T20:10:35.635Z,86.90
2017-12-02T20:13:09.735Z,86.00
2017-12-02T20:15:42.296Z,85.50
2017-12-02T20:18:16.606Z,86.10
2017-12-02T20:20:49.873Z,86.50
2017-12-02T20:23:23.154Z,86.20
2017-12-02T20:25:56.397Z,86.20
2017-12-02T20:28:30.368Z,86.00
2017-12-02T20:31:02.949Z,85.70
2017-12-02T20:33:37.287Z,85.90
2017-12-02T20:36:13.418Z,86.10
2017-12-02T20:38:46.788Z,85.90
2017-12-02T20:41:20.068Z,86.00
2017-12-02T20:43:53.433Z,85.50
2017-12-02T20:46:25.988Z,85.60
2017-12-02T20:48:59.211Z,86.10
2017-12-02T20:51:33.452Z,86.10
2017-12-02T20:54:06.044Z,85.50
2017-12-02T20:56:39.408Z,85.60
2017-12-02T20:59:13.447Z,86.50
2017-12-02T21:01:46.090Z,85.70
2017-12-02T21:04:20.104Z,86.60
2017-12-02T21:06:52.814Z,86.20
2017-12-02T21:09:25.197Z,86.30
2017-12-02T21:11:59.198Z,86.80
2017-12-02T21:14:31.637Z,85.60
2017-12-02T21:17:04.765Z,85.90
2017-12-02T21:19:37.983Z,85.90
2017-12-02T21:22:10.674Z,85.40
2017-12-02T21:24:44.617Z,85.40
2017-12-02T21:27:18.114Z,85.10
2017-12-02T21:29:50.673Z,85.10
2017-12-02T21:32:23.228Z,84.90
2017-12-02T21:34:56.412Z,85.90
2017-12-02T21:37:29.686Z,85.80
2017-12-02T21:40:02.951Z,85.70
2017-12-02T21:42:36.293Z,85.40
2017-12-02T21:45:09.572Z,86.00
2017-12-02T21:47:42.786Z,85.80
2017-12-02T21:50:16.876Z,86.10
2017-12-02T21:52:50.304Z,85.60
2017-12-02T21:55:23.420Z,86.00
2017-12-02T21:57:57.005Z,85.60
2017-12-02T22:00:29.550Z,85.50
2017-12-02T22:03:02.846Z,85.20
2017-12-02T22:05:36.122Z,85.50
2017-12-02T22:08:09.994Z,85.60
2017-12-02T22:10:42.623Z,85.20
2017-12-02T22:13:15.186Z,85.10
2017-12-02T22:15:49.158Z,84.60
2017-12-02T22:18:21.802Z,85.20
2017-12-02T22:20:54.979Z,85.50
2017-12-02T22:23:27.535Z,85.70
2017-12-02T22:26:00.730Z,85.80
2017-12-02T22:28:34.150Z,85.90
2017-12-02T22:31:06.551Z,86.40
2017-12-02T22:33:39.921Z,85.70
2017-12-02T22:36:13.214Z,85.90
2017-12-02T22:38:45.783Z,85.20
2017-12-02T22:41:19.786Z,85.70
2017-12-02T22:43:53.455Z,85.90
2017-12-02T22:46:26.697Z,86.10
2017-12-02T22:48:59.436Z,85.70
2017-12-02T22:51:33.570Z,85.00
2017-12-02T22:54:06.040Z,85.80
2017-12-02T22:56:40.094Z,86.10
2017-12-02T22:59:12.870Z,85.80
2017-12-02T23:01:46.845Z,85.90
2017-12-02T23:04:19.620Z,85.50
2017-12-02T23:06:53.708Z,86.10
2017-12-02T23:09:27.083Z,86.70
2017-12-02T23:11:59.763Z,86.30
2017-12-02T23:14:33.118Z,86.80
2017-12-02T23:17:06.403Z,86.70
2017-12-02T23:19:39.013Z,86.80
2017-12-02T23:22:12.279Z,86.70
2017-12-02T23:24:45.554Z,86.10
2017-12-02T23:27:18.011Z,85.50
2017-12-02T23:29:51.342Z,85.20
2017-12-02T23:32:24.438Z,85.30
2017-12-02T23:34:58.090Z,85.30
2017-12-02T23:37:31.872Z,85.40
2017-12-02T23:40:04.469Z,85.20
2017-12-02T23:42:38.390Z,86.10
2017-12-02T23:45:12.095Z,86.00
2017-12-02T23:47:46.552Z,86.70
2017-12-02T23:50:19.935Z,86.30
2017-12-02T23:52:53.726Z,86.50
2017-12-02T23:55:26.323Z,86.40
2017-12-02T23:58:00.670Z,86.10
